createdAt,value
2018-11-29T00:00:46.964Z,42.97
2018-11-29T00:05:50.895Z,43.20
2018-11-29T00:10:54.257Z,42.00
2018-11-29T00:15:57.349Z,42.13
2018-11-29T00:21:00.395Z,49.37
2018-11-29T00:26:04.290Z,41.50
2018-11-29T00:31:07.368Z,37.00
2018-11-29T00:36:10.847Z,37.70
2018-11-29T00:41:13.936Z,39.50
2018-11-29T00:46:17.655Z,34.03
2018-11-29T00:51:20.725Z,38.23
2018-11-29T00:56:23.800Z,37.70
2018-11-29T01:01:27.145Z,37.73
2018-11-29T01:06:30.599Z,31.73
2018-11-29T01:11:33.704Z,38.33
2018-11-29T01:16:36.921Z,42.50
2018-11-29T01:21:39.956Z,41.47
2018-11-29T01:26:43.055Z,38.30
2018-11-29T01:31:46.067Z,38.83
2018-11-29T01:36:49.123Z,47.67
2018-11-29T01:41:58.881Z,40.57
2018-11-29T01:47:01.892Z,39.70
2018-11-29T01:52:05.009Z,28.43
2018-11-29T01:57:08.025Z,52.40
2018-11-29T02:02:11.208Z,39.93
2018-11-29T02:07:14.245Z,36.73
2018-11-29T02:12:17.353Z,37.90
2018-11-29T02:17:20.398Z,37.87
2018-11-29T02:22:23.414Z,34.23
2018-11-29T02:27:26.521Z,44.23
2018-11-29T02:32:29.544Z,40.67
2018-11-29T02:37:32.621Z,40.27
2018-11-29T02:42:35.664Z,39.83
2018-11-29T02:47:38.802Z,44.80
2018-11-29T02:52:41.824Z,37.60
2018-11-29T02:57:44.869Z,35.70
2018-11-29T03:02:48.081Z,36.77
2018-11-29T03:07:51.173Z,34.23
2018-11-29T03:12:54.239Z,39.73
2018-11-29T03:17:57.352Z,40.43
2018-11-29T03:23:00.363Z,40.87
2018-11-29T03:28:03.400Z,34.43
2018-11-29T03:33:06.452Z,40.37
2018-11-29T03:38:09.482Z,36.27
2018-11-29T03:43:12.493Z,43.00
2018-11-29T03:48:15.535Z,39.33
2018-11-29T03:53:18.565Z,41.17
2018-11-29T03:58:21.681Z,46.77
2018-11-29T04:03:24.741Z,41.20
2018-11-29T04:08:27.768Z,36.50
2018-11-29T04:13:30.840Z,42.57
2018-11-29T04:18:33.995Z,37.73
2018-11-29T04:23:37.030Z,43.37
2018-11-29T04:28:40.092Z,44.70
2018-11-29T04:33:43.169Z,50.37
2018-11-29T04:38:46.228Z,48.80
2018-11-29T04:43:49.804Z,47.40
2018-11-29T04:48:53.057Z,46.43
2018-11-29T04:53:56.131Z,46.07
2018-11-29T04:58:59.251Z,46.67
2018-11-29T05:04:02.328Z,45.07
2018-11-29T05:09:08.147Z,48.50
2018-11-29T05:14:11.272Z,49.33
2018-11-29T05:19:14.301Z,50.93
2018-11-29T05:24:17.356Z,52.77
2018-11-29T05:29:20.401Z,50.23
2018-11-29T05:34:23.415Z,55.23
2018-11-29T05:39:26.491Z,41.67
2018-11-29T05:44:29.542Z,55.40
2018-11-29T05:49:32.592Z,52.17
2018-11-29T05:54:35.612Z,53.07
2018-11-29T05:59:38.719Z,49.03
2018-11-29T06:04:41.762Z,50.70
2018-11-29T06:09:44.940Z,43.57
2018-11-29T06:14:48.047Z,36.97
2018-11-29T06:19:51.592Z,57.57
2018-11-29T06:24:55.467Z,49.03
2018-11-29T06:30:00.669Z,57.53
2018-11-29T06:35:05.072Z,64.43
2018-11-29T06:40:13.140Z,54.47
2018-11-29T06:45:18.673Z,53.27
2018-11-29T06:50:22.584Z,45.93
2018-11-29T06:55:26.644Z,58.07
2018-11-29T07:00:32.608Z,52.83
2018-11-29T07:05:37.128Z,61.60
2018-11-29T07:10:42.591Z,60.43
2018-11-29T07:15:47.832Z,51.37
2018-11-29T07:21:03.250Z,56.63
2018-11-29T07:26:06.612Z,54.30
2018-11-29T07:31:09.669Z,52.77
2018-11-29T07:36:12.857Z,57.57
2018-11-29T07:41:15.897Z,55.07
2018-11-29T07:46:18.911Z,51.03
2018-11-29T07:51:22.019Z,43.93
2018-11-29T07:56:25.028Z,51.53
2018-11-29T08:01:28.079Z,51.70
2018-11-29T08:06:31.133Z,51.80
2018-11-29T08:11:34.299Z,50.37
2018-11-29T08:16:37.330Z,55.83
2018-11-29T08:21:40.431Z,49.77
2018-11-29T08:26:43.441Z,53.30
2018-11-29T08:31:46.500Z,51.97
2018-11-29T08:36:49.515Z,50.93
2018-11-29T08:41:52.611Z,54.47
2018-11-29T08:46:58.057Z,53.93
2018-11-29T08:52:01.870Z,49.17
2018-11-29T08:57:04.923Z,47.07
2018-11-29T09:02:08.021Z,52.00
2018-11-29T09:07:11.827Z,52.10
2018-11-29T09:12:14.869Z,55.03
2018-11-29T09:17:17.872Z,51.13
2018-11-29T09:22:20.919Z,45.77
2018-11-29T09:27:23.952Z,47.33
2018-11-29T09:32:26.947Z,48.90
2018-11-29T09:37:29.961Z,48.00
2018-11-29T09:42:32.983Z,44.20
2018-11-29T09:47:36.233Z,49.57
2018-11-29T09:52:39.828Z,46.17
2018-11-29T09:57:43.292Z,45.57
2018-11-29T10:02:51.385Z,43.73
2018-11-29T10:07:54.486Z,41.20
2018-11-29T10:12:57.493Z,42.27
2018-11-29T10:18:00.619Z,53.10
2018-11-29T10:23:03.943Z,49.07
2018-11-29T10:28:10.496Z,48.37
2018-11-29T10:33:13.503Z,43.07
2018-11-29T10:38:16.547Z,47.27
2018-11-29T10:43:19.707Z,43.00
2018-11-29T10:48:23.684Z,39.80
2018-11-29T10:53:38.210Z,45.63
2018-11-29T10:58:46.061Z,41.70
2018-11-29T11:03:49.431Z,45.70
2018-11-29T11:08:52.468Z,46.27
2018-11-29T11:13:55.516Z,44.97
2018-11-29T11:18:58.584Z,47.73
2018-11-29T11:24:01.611Z,41.87
2018-11-29T11:29:08.890Z,41.60
2018-11-29T11:34:12.065Z,40.47
2018-11-29T11:39:15.099Z,42.57
2018-11-29T11:44:18.178Z,49.07
2018-11-29T11:49:21.202Z,40.57
2018-11-29T11:54:24.233Z,45.30
2018-11-29T11:59:27.252Z,43.23
2018-11-29T12:04:30.263Z,42.27
2018-11-29T12:09:33.260Z,47.20
2018-11-29T12:14:36.293Z,44.93
2018-11-29T12:19:39.373Z,47.57
2018-11-29T12:24:42.477Z,51.30
2018-11-29T12:29:45.498Z,41.67
2018-11-29T12:34:48.597Z,49.07
2018-11-29T12:39:51.649Z,48.43
2018-11-29T12:44:54.777Z,48.70
2018-11-29T12:49:57.905Z,45.77
2018-11-29T13:00:24.304Z,50.43
2018-11-29T13:05:27.954Z,53.20
2018-11-29T13:10:31.026Z,46.57
2018-11-29T13:15:34.435Z,48.00
2018-11-29T13:20:37.593Z,46.57
2018-11-29T13:25:40.668Z,41.77
2018-11-29T13:30:43.918Z,44.03
2018-11-29T13:35:47.089Z,46.63
2018-11-29T13:40:52.555Z,52.77
2018-11-29T13:46:00.276Z,49.77
2018-11-29T13:51:09.362Z,51.43
2018-11-29T13:56:13.885Z,48.17
2018-11-29T14:01:20.432Z,49.73
2018-11-29T14:06:24.860Z,48.00
2018-11-29T14:11:28.541Z,42.50
2018-11-29T14:16:31.716Z,43.77
2018-11-29T14:21:34.760Z,46.87
2018-11-29T14:26:37.834Z,42.87
2018-11-29T14:31:40.879Z,44.30
2018-11-29T14:36:47.604Z,43.87
2018-11-29T14:41:50.624Z,44.10
2018-11-29T14:46:53.675Z,43.03
2018-11-29T14:51:56.799Z,48.37
2018-11-29T14:56:59.835Z,55.93
2018-11-29T15:02:02.911Z,34.67
2018-11-29T15:07:06.596Z,34.37
2018-11-29T15:12:09.734Z,33.27
2018-11-29T15:17:12.825Z,36.47
2018-11-29T15:22:15.892Z,28.77
2018-11-29T15:27:18.932Z,34.57
2018-11-29T15:32:21.993Z,25.60
2018-11-29T15:37:25.037Z,29.00
2018-11-29T15:42:28.114Z,28.67
2018-11-29T15:47:31.190Z,28.77
2018-11-29T15:52:34.243Z,23.03
2018-11-29T15:57:37.282Z,24.77
2018-11-29T16:02:40.371Z,24.30
2018-11-29T16:07:43.465Z,24.73
2018-11-29T16:12:46.553Z,24.20
2018-11-29T16:17:50.481Z,23.63
2018-11-29T16:22:53.511Z,18.93
2018-11-29T16:27:56.546Z,24.07
2018-11-29T16:33:02.383Z,26.30
2018-11-29T16:38:06.107Z,22.40
2018-11-29T16:43:09.554Z,21.80
2018-11-29T16:48:12.802Z,17.03
2018-11-29T16:53:15.870Z,23.87
2018-11-29T16:58:20.912Z,23.27
2018-11-29T17:03:23.995Z,25.57
2018-11-29T17:08:27.763Z,23.90
2018-11-29T17:13:30.852Z,24.23
2018-11-29T17:18:33.916Z,28.03
2018-11-29T17:23:36.943Z,20.83
2018-11-29T17:28:40.029Z,22.30
2018-11-29T17:33:43.080Z,29.70
2018-11-29T17:38:46.180Z,23.17
2018-11-29T17:43:49.223Z,23.83
2018-11-29T17:48:52.253Z,26.33
2018-11-29T17:53:55.391Z,26.93
2018-11-29T17:58:58.446Z,30.67
2018-11-29T18:04:01.518Z,26.10
2018-11-29T18:09:09.017Z,34.23
2018-11-29T18:14:12.195Z,30.57
2018-11-29T18:19:15.288Z,35.33
2018-11-29T18:24:18.393Z,28.13
2018-11-29T18:29:21.512Z,27.50
2018-11-29T18:34:24.531Z,34.47
2018-11-29T18:39:27.619Z,36.20
2018-11-29T18:44:32.712Z,32.70
2018-11-29T18:49:35.779Z,33.67
2018-11-29T18:54:38.873Z,32.57
2018-11-29T18:59:46.108Z,35.13
2018-11-29T19:04:49.153Z,29.60
2018-11-29T19:09:52.267Z,29.10
2018-11-29T19:14:55.360Z,33.10
2018-11-29T19:19:59.460Z,26.33
2018-11-29T19:25:02.508Z,29.57
2018-11-29T19:30:10.548Z,25.33
2018-11-29T19:35:13.660Z,28.10
2018-11-29T19:40:17.155Z,28.17
2018-11-29T19:45:20.217Z,23.67
2018-11-29T19:50:23.256Z,25.87
2018-11-29T19:55:27.617Z,25.20
2018-11-29T20:00:30.652Z,22.20
2018-11-29T20:05:33.691Z,22.37
2018-11-29T20:10:36.778Z,24.43
2018-11-29T20:15:41.310Z,24.53
2018-11-29T20:20:49.600Z,22.53
2018-11-29T20:25:52.651Z,20.00
2018-11-29T20:30:55.759Z,25.30
2018-11-29T20:35:58.812Z,22.50
2018-11-29T20:41:01.838Z,24.63
2018-11-29T20:46:04.872Z,28.97
2018-11-29T20:51:07.908Z,22.37
2018-11-29T20:56:12.491Z,23.57
2018-11-29T21:01:15.519Z,22.10
2018-11-29T21:06:18.549Z,24.40
2018-11-29T21:11:21.601Z,22.43
2018-11-29T21:16:24.748Z,17.70
2018-11-29T21:21:27.789Z,23.87
2018-11-29T21:26:30.872Z,18.20
2018-11-29T21:31:33.893Z,24.63
2018-11-29T21:36:43.477Z,12.87
2018-11-29T21:41:46.536Z,18.87
2018-11-29T21:46:49.657Z,26.33
2018-11-29T21:51:52.713Z,23.37
2018-11-29T21:56:55.756Z,18.67
2018-11-29T22:01:58.804Z,17.10
2018-11-29T22:07:01.878Z,17.60
2018-11-29T22:12:04.935Z,16.70
2018-11-29T22:17:07.992Z,27.00
2018-11-29T22:22:11.015Z,22.20
2018-11-29T22:27:14.103Z,19.63
2018-11-29T22:32:17.163Z,20.63
2018-11-29T22:37:20.197Z,23.63
2018-11-29T22:42:23.233Z,20.07
2018-11-29T22:47:26.315Z,22.63
2018-11-29T22:52:29.356Z,20.13
2018-11-29T22:57:32.403Z,24.33
2018-11-29T23:02:35.553Z,25.03
2018-11-29T23:07:38.590Z,13.63
2018-11-29T23:12:41.703Z,22.67
2018-11-29T23:17:44.755Z,29.80
2018-11-29T23:22:47.798Z,24.63
2018-11-29T23:27:50.894Z,16.40
2018-11-29T23:32:53.935Z,17.87
2018-11-29T23:37:56.981Z,20.07
2018-11-29T23:43:00.032Z,18.10
2018-11-29T23:48:03.080Z,27.57
2018-11-29T23:53:06.154Z,24.13
2018-11-29T23:58:09.215Z,24.43
